Pagrindinis puslapis
METAR-TAF:

METAR-TAF

Oro uostai :

Tarantas, Italija

platuma: 40-31N, ilguma: 017-24E, Aukštis: 64 m

Dabartinis oras

Ataskaita buvo paskelbta 7 valandos ir 33 minutes, ne 18:50 UTC
Vėjas 4 kt iš Vakarų
Temperatūra 4°C
Drėgmė 87%
Slėgis 1023 hPa
Matomumas 10 km arba daugiau
Mažai debesys ne aukštis 1500 ft
Išsisklaidę debesys ne aukštis 3000 ft

METAR: LIBG 181850Z 28004KT 9999 FEW015 SCT030 04/02 Q1023

Laikas: 03:23 (02:23 UTC)

Prognozė

Ataskaita buvo paskelbta 9 valandos ir 23 minutes, ne 17:00 UTC
Prognozė galioja nuo 18 metu 18 UTC su 19 metu 03 UTC
Vėjas 7 kt iš Šiaurės Vakarų
Matomumas 10 km arba daugiau
Išsisklaidę debesys ne aukštis 3000 ft

TAF: LIBG 181700Z 1818/1903 31007KT 9999 SCT030

Orai ataskaitas ir orų prognozės (METAR, TAF).

turimą stotys yra geltonos ir raudonos taškus žemėlapyje.

Perkelti pele per norėdami pamatyti stoties vardą.

Tada spustelėkite, norėdami matyti oro stebėjimo ir prognozės.

Norėdami pakeisti žemėlapį: spustelėkite ant žalios mygtukų su juodo kryžiaus žemyn,; žalią mygtuką su brūkšneliu, jei norite nutolinti; arba žalių rodyklių gretimoms žemėlapius.


METAR-TAF: